createdAt,value
2023-11-13T00:01:33.441Z,19.25
2023-11-13T00:04:00.123Z,18.55
2023-11-13T00:06:26.802Z,18.86
2023-11-13T00:08:53.938Z,18.71
2023-11-13T00:11:21.521Z,18.98
2023-11-13T00:13:48.529Z,18.70
2023-11-13T00:16:15.849Z,18.52
2023-11-13T00:18:43.313Z,18.93
2023-11-13T00:21:10.028Z,18.58
2023-11-13T00:23:38.205Z,18.34
2023-11-13T00:26:05.819Z,18.35
2023-11-13T00:28:32.475Z,18.20
2023-11-13T00:30:59.224Z,18.36
2023-11-13T00:33:25.855Z,17.49
2023-11-13T00:35:52.553Z,17.74
2023-11-13T00:38:19.174Z,18.68
2023-11-13T00:40:45.904Z,17.68
2023-11-13T00:43:13.826Z,17.36
2023-11-13T00:45:43.710Z,17.50
2023-11-13T00:48:10.383Z,17.12
2023-11-13T00:50:36.970Z,16.23
2023-11-13T00:53:03.624Z,16.20
2023-11-13T00:55:30.177Z,15.87
2023-11-13T00:57:56.848Z,15.91
2023-11-13T01:00:23.520Z,15.89
2023-11-13T01:02:50.198Z,16.20
2023-11-13T01:05:17.297Z,15.23
2023-11-13T01:07:43.971Z,15.60
2023-11-13T01:10:10.882Z,15.65
2023-11-13T01:12:37.981Z,14.38
2023-11-13T01:15:08.123Z,13.93
2023-11-13T01:17:35.259Z,13.18
2023-11-13T01:20:02.293Z,13.57
2023-11-13T01:22:31.347Z,14.17
2023-11-13T01:24:58.167Z,14.00
2023-11-13T01:27:24.901Z,15.33
2023-11-13T01:29:51.461Z,15.96
2023-11-13T01:32:18.020Z,15.74
2023-11-13T01:34:44.643Z,16.12
2023-11-13T01:37:11.318Z,16.26
2023-11-13T01:39:38.550Z,16.32
2023-11-13T01:42:06.310Z,16.50
2023-11-13T01:44:32.871Z,15.53
2023-11-13T01:47:00.408Z,15.86
2023-11-13T01:49:27.907Z,15.91
2023-11-13T01:51:55.734Z,15.60
2023-11-13T01:54:23.453Z,15.64
2023-11-13T01:56:51.670Z,15.23
2023-11-13T01:59:18.669Z,15.67
2023-11-13T02:01:45.299Z,15.94
2023-11-13T02:04:12.259Z,16.12
2023-11-13T02:06:38.857Z,16.18
2023-11-13T02:09:07.746Z,15.53
2023-11-13T02:11:34.477Z,15.79
2023-11-13T02:14:01.290Z,15.65
2023-11-13T02:16:28.034Z,15.20
2023-11-13T02:18:55.562Z,15.65
2023-11-13T02:21:22.273Z,15.36
2023-11-13T02:23:50.303Z,15.70
2023-11-13T02:26:18.845Z,15.48
2023-11-13T02:28:45.745Z,15.08
2023-11-13T02:31:12.711Z,15.03
2023-11-13T02:33:39.463Z,15.02
2023-11-13T02:36:06.455Z,15.00
2023-11-13T02:38:33.051Z,15.15
2023-11-13T02:41:00.276Z,15.47
2023-11-13T02:43:26.947Z,14.47
2023-11-13T02:45:53.812Z,14.67
2023-11-13T02:48:20.972Z,15.01
2023-11-13T02:50:48.708Z,15.13
2023-11-13T02:53:16.443Z,15.65
2023-11-13T02:55:43.063Z,15.01
2023-11-13T02:58:09.841Z,15.17
2023-11-13T03:00:36.488Z,15.60
2023-11-13T03:03:03.229Z,15.37
2023-11-13T03:05:30.488Z,14.89
2023-11-13T03:07:58.920Z,15.37
2023-11-13T03:10:26.425Z,15.16
2023-11-13T03:12:53.814Z,14.77
2023-11-13T03:15:20.671Z,14.44
2023-11-13T03:17:47.357Z,14.79
2023-11-13T03:20:14.094Z,14.69
2023-11-13T03:22:40.776Z,14.05
2023-11-13T03:25:07.718Z,14.18
2023-11-13T03:27:34.473Z,13.73
2023-11-13T03:30:01.088Z,13.63
2023-11-13T03:32:27.848Z,13.63
2023-11-13T03:34:54.546Z,13.93
2023-11-13T03:37:21.279Z,14.11
2023-11-13T03:39:48.812Z,13.97
2023-11-13T03:42:15.776Z,14.29
2023-11-13T03:44:43.217Z,13.92
2023-11-13T03:47:10.089Z,14.36
2023-11-13T03:49:36.759Z,14.50
2023-11-13T03:52:03.551Z,13.73
2023-11-13T03:54:30.190Z,14.00
2023-11-13T03:56:58.680Z,14.19
2023-11-13T03:59:25.261Z,13.70
2023-11-13T04:01:51.902Z,14.00
2023-11-13T04:04:18.648Z,13.73
2023-11-13T04:06:45.282Z,13.80
2023-11-13T04:09:11.906Z,13.90
2023-11-13T04:11:39.319Z,13.83
2023-11-13T04:14:05.921Z,13.77
2023-11-13T04:16:32.533Z,13.21
2023-11-13T04:18:59.197Z,13.50
2023-11-13T04:21:25.815Z,13.53
2023-11-13T04:23:52.412Z,13.36
2023-11-13T04:26:19.438Z,13.20
2023-11-13T04:28:46.108Z,13.42
2023-11-13T04:31:16.778Z,13.24
2023-11-13T04:33:43.504Z,13.38
2023-11-13T04:36:10.684Z,13.06
2023-11-13T04:38:39.000Z,12.60
2023-11-13T04:41:06.377Z,12.71
2023-11-13T04:43:33.602Z,12.74
2023-11-13T04:48:26.777Z,12.71
2023-11-13T04:50:54.746Z,13.43
2023-11-13T04:53:21.574Z,13.29
2023-11-13T04:55:48.159Z,13.44
2023-11-13T04:58:14.772Z,12.87
2023-11-13T05:00:41.384Z,13.08
2023-11-13T05:03:08.014Z,13.12
2023-11-13T05:05:37.916Z,13.05
2023-11-13T05:08:05.548Z,13.36
2023-11-13T05:10:33.603Z,13.29
2023-11-13T05:13:01.146Z,13.80
2023-11-13T05:15:27.813Z,13.89
2023-11-13T05:17:55.362Z,14.05
2023-11-13T05:20:22.044Z,14.38
2023-11-13T05:22:49.871Z,14.31
2023-11-13T05:25:16.620Z,14.52
2023-11-13T05:27:43.360Z,13.89
2023-11-13T05:30:10.306Z,14.33
2023-11-13T05:32:36.981Z,14.22
2023-11-13T05:35:04.098Z,13.67
2023-11-13T05:37:30.721Z,14.39
2023-11-13T05:39:57.364Z,13.95
2023-11-13T05:42:25.094Z,13.93
2023-11-13T05:44:51.860Z,13.85
2023-11-13T05:47:18.780Z,14.62
2023-11-13T05:49:45.634Z,14.70
2023-11-13T05:52:12.330Z,14.47
2023-11-13T05:54:38.996Z,14.90
2023-11-13T05:57:05.853Z,14.60
2023-11-13T05:59:32.533Z,14.50
2023-11-13T06:01:59.078Z,14.50
2023-11-13T06:04:26.007Z,15.05
2023-11-13T06:06:52.681Z,15.17
2023-11-13T06:09:19.257Z,14.54
2023-11-13T06:11:48.468Z,14.97
2023-11-13T06:14:15.237Z,15.12
2023-11-13T06:16:41.932Z,15.41
2023-11-13T06:19:08.964Z,15.46
2023-11-13T06:21:35.712Z,15.59
2023-11-13T06:24:02.336Z,15.83
2023-11-13T06:26:29.009Z,15.66
2023-11-13T06:28:55.618Z,15.64
2023-11-13T06:31:23.247Z,15.43
2023-11-13T06:33:51.748Z,16.14
2023-11-13T06:36:18.365Z,15.80
2023-11-13T06:38:46.496Z,15.88
2023-11-13T06:41:13.101Z,15.35
2023-11-13T06:43:39.740Z,15.87
2023-11-13T06:46:06.399Z,15.91
2023-11-13T06:48:33.637Z,15.58
2023-11-13T06:51:00.267Z,15.48
2023-11-13T06:53:27.015Z,15.82
2023-11-13T06:55:53.667Z,15.72
2023-11-13T06:58:23.438Z,16.03
2023-11-13T07:00:51.217Z,15.96
2023-11-13T07:03:19.332Z,15.76
2023-11-13T07:05:47.435Z,15.24
2023-11-13T07:08:14.580Z,15.17
2023-11-13T07:10:44.418Z,15.63
2023-11-13T07:13:12.953Z,15.74
2023-11-13T07:15:40.561Z,15.97
2023-11-13T07:18:08.853Z,15.01
2023-11-13T07:20:37.274Z,14.90
2023-11-13T07:23:04.387Z,14.98
2023-11-13T07:25:31.131Z,14.87
2023-11-13T07:27:58.360Z,15.13
2023-11-13T07:30:27.047Z,14.94
2023-11-13T07:32:54.163Z,14.38
2023-11-13T07:35:21.658Z,13.89
2023-11-13T07:37:48.683Z,13.95
2023-11-13T07:40:16.224Z,13.80
2023-11-13T07:42:44.555Z,13.88
2023-11-13T07:45:13.094Z,13.40
2023-11-13T07:47:41.111Z,13.44
2023-11-13T07:50:15.056Z,13.21
2023-11-13T07:52:43.448Z,12.85
2023-11-13T07:55:11.382Z,12.04
2023-11-13T07:57:43.355Z,12.46
2023-11-13T08:00:12.507Z,12.03
2023-11-13T08:02:43.518Z,11.49
2023-11-13T08:05:12.416Z,11.42
2023-11-13T08:07:43.930Z,11.55
2023-11-13T08:10:15.229Z,10.57
2023-11-13T08:12:47.171Z,10.36
2023-11-13T08:15:14.663Z,9.97
2023-11-13T08:17:45.276Z,9.67
2023-11-13T08:20:16.580Z,9.88
2023-11-13T08:22:47.122Z,9.48
2023-11-13T08:25:13.981Z,9.56
2023-11-13T08:27:44.327Z,9.12
2023-11-13T08:30:15.059Z,8.84
2023-11-13T08:32:42.866Z,8.82
2023-11-13T08:35:13.605Z,8.77
2023-11-13T08:37:43.222Z,8.35
2023-11-13T08:40:14.757Z,8.42
2023-11-13T08:42:43.814Z,8.00
2023-11-13T08:45:16.714Z,7.87
2023-11-13T08:47:48.473Z,7.87
2023-11-13T08:50:15.480Z,7.17
2023-11-13T08:52:43.357Z,7.10
2023-11-13T08:55:13.212Z,7.10
2023-11-13T08:57:43.536Z,6.88
2023-11-13T09:00:22.156Z,6.55
2023-11-13T09:02:50.310Z,6.70
2023-11-13T09:05:17.142Z,7.05
2023-11-13T09:07:44.741Z,7.11
2023-11-13T09:10:12.304Z,7.23
2023-11-13T09:12:40.800Z,7.81
2023-11-13T09:15:16.197Z,7.74
2023-11-13T09:17:45.110Z,8.14
2023-11-13T09:20:20.644Z,8.13
2023-11-13T09:22:48.209Z,7.64
2023-11-13T09:25:15.680Z,7.64
2023-11-13T09:27:47.330Z,7.59
2023-11-13T09:30:19.663Z,7.16
2023-11-13T09:32:47.395Z,7.29
2023-11-13T09:35:26.108Z,7.59
2023-11-13T09:37:54.116Z,7.61
2023-11-13T09:40:26.766Z,7.79
2023-11-13T09:43:08.137Z,7.13
2023-11-13T09:45:43.341Z,6.90
2023-11-13T09:48:11.885Z,6.25
2023-11-13T09:50:41.832Z,6.25
2023-11-13T09:53:09.310Z,6.35
2023-11-13T09:55:36.498Z,6.38
2023-11-13T09:58:03.218Z,5.97
2023-11-13T10:00:34.035Z,5.90
2023-11-13T10:03:01.488Z,5.78
2023-11-13T10:05:31.185Z,5.50
2023-11-13T10:07:58.915Z,5.54
2023-11-13T10:10:28.925Z,5.47
2023-11-13T10:12:57.648Z,5.03
2023-11-13T10:15:27.103Z,4.92
2023-11-13T10:17:59.442Z,4.20
2023-11-13T10:20:27.730Z,4.15
2023-11-13T10:22:57.479Z,3.65
2023-11-13T10:25:25.217Z,3.66
2023-11-13T10:28:01.232Z,3.21
2023-11-13T10:30:31.428Z,2.87
2023-11-13T10:32:59.607Z,2.76
2023-11-13T10:35:36.756Z,2.44
2023-11-13T10:38:09.162Z,2.27
2023-11-13T10:40:40.171Z,2.61
2023-11-13T10:43:08.728Z,2.35
2023-11-13T10:45:35.392Z,2.23
2023-11-13T10:48:02.082Z,2.39
2023-11-13T10:50:29.948Z,2.66
2023-11-13T10:52:59.183Z,2.56
2023-11-13T10:55:28.851Z,2.55
2023-11-13T10:57:56.411Z,2.68
2023-11-13T11:00:23.152Z,2.65
2023-11-13T11:02:54.678Z,2.35
2023-11-13T11:05:24.201Z,2.54
2023-11-13T11:07:53.930Z,2.45
2023-11-13T11:10:31.501Z,2.42
2023-11-13T11:13:15.120Z,2.49
2023-11-13T11:15:45.244Z,2.44
2023-11-13T11:18:41.637Z,2.22
2023-11-13T11:21:33.016Z,2.02
2023-11-13T11:24:13.002Z,2.01
2023-11-13T11:26:59.933Z,2.04
2023-11-13T11:29:33.052Z,2.12
2023-11-13T11:32:20.516Z,2.09
2023-11-13T11:35:03.590Z,2.17
2023-11-13T11:37:31.287Z,2.18
2023-11-13T11:40:05.266Z,2.56
2023-11-13T11:42:33.128Z,2.77
2023-11-13T11:45:01.196Z,2.89
2023-11-13T11:47:29.162Z,2.99
2023-11-13T11:49:58.326Z,3.20
2023-11-13T11:52:56.412Z,3.18
2023-11-13T11:55:24.038Z,3.38
2023-11-13T11:57:54.498Z,3.73
2023-11-13T12:00:23.059Z,3.95
2023-11-13T12:02:52.875Z,3.68
2023-11-13T12:05:20.912Z,3.59
2023-11-13T12:07:48.155Z,4.09
2023-11-13T12:10:19.593Z,3.96
2023-11-13T12:12:47.828Z,4.27
2023-11-13T12:15:14.553Z,4.54
2023-11-13T12:17:43.284Z,4.57
2023-11-13T12:20:20.013Z,4.83
2023-11-13T12:22:49.339Z,5.12
2023-11-13T12:25:16.851Z,5.13
2023-11-13T12:27:50.464Z,5.48
2023-11-13T12:30:17.885Z,5.06
2023-11-13T12:32:45.573Z,5.30
2023-11-13T12:35:12.707Z,5.01
2023-11-13T12:37:44.990Z,5.25
2023-11-13T12:40:14.392Z,4.98
2023-11-13T12:42:41.636Z,4.88
2023-11-13T12:45:16.806Z,4.59
2023-11-13T12:47:52.088Z,4.71
2023-11-13T12:50:21.271Z,4.59
2023-11-13T12:52:51.762Z,4.94
2023-11-13T12:55:19.747Z,4.69
2023-11-13T12:57:55.307Z,4.48
2023-11-13T13:00:23.042Z,4.81
2023-11-13T13:02:51.612Z,4.64
2023-11-13T13:05:26.763Z,4.60
2023-11-13T13:07:59.531Z,4.90
2023-11-13T13:10:27.051Z,5.37
2023-11-13T13:12:54.966Z,4.55
2023-11-13T13:15:22.358Z,4.40
2023-11-13T13:17:52.172Z,4.46
2023-11-13T13:20:24.760Z,4.28
2023-11-13T13:22:52.947Z,3.84
2023-11-13T13:25:21.677Z,3.90
2023-11-13T13:27:49.176Z,3.90
2023-11-13T13:30:19.908Z,3.75
2023-11-13T13:32:47.968Z,3.50
2023-11-13T13:35:14.635Z,3.18
2023-11-13T13:37:41.308Z,3.06
2023-11-13T13:40:10.833Z,2.78
2023-11-13T13:42:44.916Z,2.88
2023-11-13T13:45:15.971Z,2.80
2023-11-13T13:47:42.819Z,2.69
2023-11-13T13:50:11.420Z,2.79
2023-11-13T13:52:41.531Z,2.70
2023-11-13T13:55:11.406Z,2.69
2023-11-13T13:57:40.918Z,2.56
2023-11-13T14:00:18.152Z,2.72
2023-11-13T14:02:54.996Z,2.61
2023-11-13T14:05:22.102Z,2.67
2023-11-13T14:07:48.865Z,2.62
2023-11-13T14:10:15.723Z,2.73
2023-11-13T14:12:42.437Z,2.88
2023-11-13T14:15:12.522Z,3.20
2023-11-13T14:17:42.730Z,3.21
2023-11-13T14:20:16.086Z,3.13
2023-11-13T14:22:47.836Z,3.11
2023-11-13T14:25:19.026Z,3.72
2023-11-13T14:27:58.578Z,4.21
2023-11-13T14:30:32.618Z,3.97
2023-11-13T14:33:02.277Z,4.07
2023-11-13T14:35:29.011Z,5.03
2023-11-13T14:37:55.864Z,5.09
2023-11-13T14:40:24.968Z,5.30
2023-11-13T14:42:51.927Z,5.69
2023-11-13T14:45:20.552Z,6.40
2023-11-13T14:47:49.571Z,7.17
2023-11-13T14:50:21.626Z,7.85
2023-11-13T14:52:53.625Z,8.26
2023-11-13T14:55:25.787Z,8.34
2023-11-13T14:57:53.561Z,8.91
2023-11-13T15:00:22.205Z,9.47
2023-11-13T15:02:51.057Z,9.87
2023-11-13T15:05:18.155Z,9.80
2023-11-13T15:07:45.410Z,9.03
2023-11-13T15:10:14.142Z,9.99
2023-11-13T15:12:41.535Z,9.27
2023-11-13T15:15:09.831Z,9.94
2023-11-13T15:17:37.911Z,9.89
2023-11-13T15:20:11.931Z,11.53
2023-11-13T15:23:00.584Z,11.98
2023-11-13T15:25:27.433Z,11.51
2023-11-13T15:27:54.099Z,11.16
2023-11-13T15:30:21.556Z,11.65
2023-11-13T15:32:49.341Z,12.17
2023-11-13T15:35:16.613Z,12.84
2023-11-13T15:37:43.394Z,13.12
2023-11-13T15:40:15.974Z,13.21
2023-11-13T15:42:42.932Z,11.67
2023-11-13T15:45:12.324Z,11.93
2023-11-13T15:47:39.985Z,14.44
2023-11-13T15:50:21.410Z,15.61
2023-11-13T15:52:49.191Z,11.26
2023-11-13T15:55:16.658Z,12.03
2023-11-13T15:57:44.780Z,12.56
2023-11-13T16:00:12.976Z,12.93
2023-11-13T16:02:42.857Z,14.23
2023-11-13T16:05:10.714Z,12.89
2023-11-13T16:07:37.971Z,11.99
2023-11-13T16:10:05.329Z,11.38
2023-11-13T16:12:32.422Z,12.33
2023-11-13T16:15:00.222Z,12.07
2023-11-13T16:17:27.969Z,11.99
2023-11-13T16:19:55.079Z,11.74
2023-11-13T16:22:23.182Z,11.82
2023-11-13T16:24:50.013Z,12.43
2023-11-13T16:27:16.600Z,12.40
2023-11-13T16:29:43.156Z,12.64
2023-11-13T16:32:10.102Z,12.85
2023-11-13T16:34:39.279Z,12.60
2023-11-13T16:37:05.922Z,12.29
2023-11-13T16:39:33.461Z,12.27
2023-11-13T16:42:00.195Z,12.37
2023-11-13T16:44:26.853Z,11.27
2023-11-13T16:46:53.628Z,11.77
2023-11-13T16:49:20.304Z,10.78
2023-11-13T16:51:46.929Z,11.04
2023-11-13T16:54:13.580Z,10.09
2023-11-13T16:56:44.089Z,9.99
2023-11-13T16:59:10.825Z,9.58
2023-11-13T17:01:38.201Z,9.37
2023-11-13T17:04:05.285Z,9.01
2023-11-13T17:06:32.416Z,8.29
2023-11-13T17:08:59.437Z,8.00
2023-11-13T17:11:27.079Z,7.85
2023-11-13T17:13:53.877Z,8.39
2023-11-13T17:16:20.754Z,8.67
2023-11-13T17:18:47.389Z,9.63
2023-11-13T17:21:14.713Z,10.35
2023-11-13T17:23:41.668Z,11.68
2023-11-13T17:26:09.502Z,13.12
2023-11-13T17:28:36.216Z,13.31
2023-11-13T17:31:03.684Z,14.39
2023-11-13T17:33:30.597Z,13.63
2023-11-13T17:35:57.623Z,13.82
2023-11-13T17:38:27.097Z,13.86
2023-11-13T17:40:53.856Z,12.60
2023-11-13T17:43:20.801Z,12.55
2023-11-13T17:45:48.661Z,11.35
2023-11-13T17:48:15.520Z,11.00
2023-11-13T17:50:44.651Z,10.91
2023-11-13T17:53:13.938Z,10.49
2023-11-13T17:55:40.767Z,10.15
2023-11-13T17:58:07.359Z,10.71
2023-11-13T18:00:34.025Z,9.36
2023-11-13T18:03:00.849Z,9.37
2023-11-13T18:05:27.647Z,8.58
2023-11-13T18:07:55.104Z,9.21
2023-11-13T18:10:21.857Z,8.94
2023-11-13T18:12:48.745Z,9.05
2023-11-13T18:15:15.394Z,9.34
2023-11-13T18:17:42.861Z,10.51
2023-11-13T18:20:15.729Z,10.28
2023-11-13T18:22:44.659Z,9.48
2023-11-13T18:25:11.700Z,9.87
2023-11-13T18:27:39.161Z,9.35
2023-11-13T18:30:07.499Z,9.75
2023-11-13T18:32:34.708Z,9.47
2023-11-13T18:35:01.386Z,9.54
2023-11-13T18:37:30.574Z,10.12
2023-11-13T18:39:57.207Z,9.26
2023-11-13T18:42:23.951Z,9.41
2023-11-13T18:44:51.067Z,10.57
2023-11-13T18:47:18.789Z,10.07
2023-11-13T18:49:46.536Z,10.61
2023-11-13T18:52:13.631Z,9.41
2023-11-13T18:54:40.300Z,9.38
2023-11-13T18:57:07.009Z,10.50
2023-11-13T18:59:33.631Z,9.60
2023-11-13T19:02:00.240Z,9.85
2023-11-13T19:04:28.018Z,9.48
2023-11-13T19:06:54.722Z,10.95
2023-11-13T19:09:22.740Z,11.48
2023-11-13T19:11:50.550Z,10.72
2023-11-13T19:14:17.703Z,11.10
2023-11-13T19:16:44.776Z,10.69
2023-11-13T19:19:13.102Z,10.95
2023-11-13T19:21:39.714Z,10.11
2023-11-13T19:24:07.051Z,11.14
2023-11-13T19:26:33.879Z,10.97
2023-11-13T19:29:00.748Z,10.89
2023-11-13T19:31:27.637Z,11.15
2023-11-13T19:33:54.574Z,11.13
2023-11-13T19:36:23.561Z,10.39
2023-11-13T19:38:50.348Z,11.25
2023-11-13T19:41:16.953Z,11.60
2023-11-13T19:43:43.604Z,11.86
2023-11-13T19:46:11.251Z,11.61
2023-11-13T19:48:37.900Z,11.50
2023-11-13T19:51:05.622Z,11.05
2023-11-13T19:53:32.593Z,11.81
2023-11-13T19:56:00.643Z,11.15
2023-11-13T19:58:27.733Z,10.89
2023-11-13T20:00:54.398Z,11.39
2023-11-13T20:03:21.734Z,10.68
2023-11-13T20:05:48.543Z,10.48
2023-11-13T20:08:15.213Z,11.53
2023-11-13T20:10:42.411Z,10.79
2023-11-13T20:13:10.072Z,11.47
2023-11-13T20:15:36.736Z,10.98
2023-11-13T20:18:03.644Z,11.70
2023-11-13T20:20:30.572Z,11.58
2023-11-13T20:22:58.048Z,11.34
2023-11-13T20:25:24.927Z,12.05
2023-11-13T20:27:51.641Z,11.02
2023-11-13T20:30:18.425Z,11.11
2023-11-13T20:32:45.105Z,12.02
2023-11-13T20:35:11.965Z,10.88
2023-11-13T20:37:38.886Z,12.51
2023-11-13T20:40:07.244Z,11.11
2023-11-13T20:42:34.366Z,10.75
2023-11-13T20:45:01.464Z,11.23
2023-11-13T20:47:28.119Z,11.61
2023-11-13T20:49:56.130Z,11.98
2023-11-13T20:52:24.417Z,10.71
2023-11-13T20:54:51.053Z,11.39
2023-11-13T20:57:17.602Z,11.28
2023-11-13T20:59:44.262Z,11.78
2023-11-13T21:02:11.268Z,11.67
2023-11-13T21:04:39.140Z,11.01
2023-11-13T21:07:05.795Z,10.49
2023-11-13T21:09:32.513Z,10.72
2023-11-13T21:11:59.314Z,10.82
2023-11-13T21:14:25.880Z,10.72
2023-11-13T21:16:52.503Z,10.74
2023-11-13T21:19:19.268Z,11.51
2023-11-13T21:21:46.558Z,10.64
2023-11-13T21:24:13.244Z,10.62
2023-11-13T21:26:39.842Z,10.24
2023-11-13T21:29:08.386Z,10.39
2023-11-13T21:31:36.078Z,10.54
2023-11-13T21:34:02.761Z,11.11
2023-11-13T21:36:29.322Z,10.54
2023-11-13T21:38:55.966Z,10.84
2023-11-13T21:41:22.678Z,10.82
2023-11-13T21:43:49.838Z,10.46
2023-11-13T21:46:17.588Z,10.99
2023-11-13T21:48:44.259Z,11.09
2023-11-13T21:51:11.171Z,11.76
2023-11-13T21:53:38.236Z,10.45
2023-11-13T21:56:07.924Z,10.35
2023-11-13T21:58:34.690Z,10.97
2023-11-13T22:01:02.174Z,10.89
2023-11-13T22:03:29.401Z,9.97
2023-11-13T22:05:58.450Z,9.87
2023-11-13T22:08:25.365Z,11.22
2023-11-13T22:10:53.371Z,11.90
2023-11-13T22:13:20.335Z,11.66
2023-11-13T22:15:46.958Z,10.74
2023-11-13T22:18:13.734Z,11.13
2023-11-13T22:20:40.316Z,10.75
2023-11-13T22:23:09.221Z,11.18
2023-11-13T22:25:36.249Z,10.54
2023-11-13T22:28:03.202Z,12.17
2023-11-13T22:30:29.975Z,11.81
2023-11-13T22:32:57.885Z,12.10
2023-11-13T22:35:24.873Z,12.29
2023-11-13T22:37:52.594Z,11.67
2023-11-13T22:40:19.997Z,11.56
2023-11-13T22:42:46.960Z,11.49
2023-11-13T22:45:13.631Z,11.82
2023-11-13T22:47:40.300Z,10.44
2023-11-13T22:50:07.653Z,10.43
2023-11-13T22:52:34.351Z,11.32
2023-11-13T22:55:01.049Z,11.20
2023-11-13T22:57:27.643Z,12.27
2023-11-13T22:59:54.239Z,11.39
2023-11-13T23:02:23.112Z,12.43
2023-11-13T23:04:52.001Z,11.94
2023-11-13T23:07:18.971Z,12.36
2023-11-13T23:09:46.534Z,12.00
2023-11-13T23:12:13.600Z,12.41
2023-11-13T23:14:40.587Z,13.07
2023-11-13T23:17:07.422Z,12.24
2023-11-13T23:19:34.350Z,13.50
2023-11-13T23:22:04.532Z,12.88
2023-11-13T23:24:32.515Z,12.58
2023-11-13T23:27:01.212Z,13.16
2023-11-13T23:29:28.468Z,12.73
2023-11-13T23:31:55.492Z,12.43
2023-11-13T23:34:22.234Z,12.48
2023-11-13T23:36:49.707Z,13.25
2023-11-13T23:39:17.222Z,12.52
2023-11-13T23:41:43.821Z,12.31
2023-11-13T23:44:11.984Z,12.71
2023-11-13T23:46:39.823Z,13.25
2023-11-13T23:49:07.298Z,13.22
2023-11-13T23:51:34.021Z,13.79
2023-11-13T23:54:01.389Z,11.71
2023-11-13T23:56:28.640Z,11.97
2023-11-13T23:58:57.404Z,12.19
